Terminal Aerodrome Forecast
Issued by NWS Charleston, WV

Current Version | Previous Version | Text Only | Print | Product List | Glossary Off
Versions: 1 2 3 4 5 6 7 8 9 10 11 12 13 14 15 16 17 18 19 20 21 22

900
FTUS41 KRLX 250905 AAA
TAFCRW
TAF AMD
KCRW 250905Z 2509/2606 00000KT 6SM BR FEW002
     FM251000 00000KT 4SM BR SKC
     FM251200 20004KT P6SM SCT045
     FM251900 23005KT P6SM BKN110=

USA.gov is the U.S. government's official web portal to all federal, state and local government web resources and services.